KLIC/LIC METAR and TAF weather

Enter ICAO airport designator
Station Type Date Time Source
KLIC METAR 2019/02/16 00:55 UTC NOAA

KLIC 160055Z AUTO 14017G24KT 10SM CLR M01/M07 A2974 RMK AO2 SLP094 T10061072


Station Type Date Time Source
KLIC Decoded METAR 2019/02/16 00:55 UTC NOAA

LIMON MUNICIPAL AIRPORT, CO, United States (KLIC) 39-16N 103-40W 1630M
Feb 15, 2019 - 07:55 PM EST / 2019.02.16 0055 UTC
Wind: from the SE (140 degrees) at 20 MPH (17 KT) gusting to 28 MPH (24 KT):0
Visibility: 10 mile(s):0
Sky conditions: clear
Temperature: 30.9 F (-0.6 C)
Windchill: 19 F (-7 C):1
Dew Point: 19.0 F (-7.2 C)
Relative Humidity: 60%
Pressure (altimeter): 29.74 in. Hg (1007 hPa)
ob: KLIC 160055Z AUTO 14017G24KT 10SM CLR M01/M07 A2974 RMK AO2 SLP094 T10061072
cycle: 1

Station Type Date Time Source
KLIC TAF UTC NOAA

Error!


Example: see airport list